Portada
METAR-TAF:

METAR-TAF

Aeroports :

Twin County Airport

Galax-Hillsville, Virgínia, Estats Units d'Amèrica

latitud: 36-46N, longitud: 080-49W, altitud: 834 m

Observació

L'informe es va fer fa 54 minuts, a les 21:35 UTC
Vent calma
Temperatura -1°C
Humitat 36%
Pressió 1023 hPa
Visibilitat: 16.1 km
Cel clar

METAR: KHLX 132135Z AUTO 00000KT 10SM CLR M01/M14 A3022 RMK AO2 T10081137

Hora: 17:29 (22:29 UTC)


TAF: manca

Observacions i pronòstics meteorològics de més de 4000 aeroports (METAR i TAF).

Les estacions disponibles són els punts grocs i vermells al mapa.

Posi el ratolí al punt desitjat per veure el nom de l'estació.

Feu clic per veure les observacions i els pronòstics meteorològics.

Per canviar el mapa: feu clic els botons verds amb una creu de color negre per apropar; al botó verd amb un guió per allunyar la imatge; o en les fletxes verdes per a mapes adjacents.


METAR-TAF: